createdAt,value
2023-04-20T00:00:36.277Z,71.71
2023-04-20T00:05:37.856Z,72.19
2023-04-20T00:10:39.640Z,72.56
2023-04-20T00:15:41.137Z,73.22
2023-04-20T00:20:42.585Z,73.43
2023-04-20T00:25:44.117Z,74.33
2023-04-20T00:30:45.656Z,74.66
2023-04-20T00:35:47.233Z,75.75
2023-04-20T00:40:53.221Z,77.23
2023-04-20T00:45:54.963Z,78.86
2023-04-20T00:50:56.719Z,80.81
2023-04-20T00:55:58.334Z,82.17
2023-04-20T01:00:59.935Z,83.87
2023-04-20T01:06:02.411Z,85.13
2023-04-20T01:11:03.922Z,86.79
2023-04-20T01:16:05.708Z,87.58
2023-04-20T01:21:07.380Z,88.22
2023-04-20T01:26:10.737Z,88.16
2023-04-20T01:31:12.889Z,88.66
2023-04-20T01:36:14.661Z,89.27
2023-04-20T01:41:16.125Z,89.25
2023-04-20T01:46:17.666Z,89.43
2023-04-20T01:51:19.156Z,89.22
2023-04-20T01:56:20.689Z,88.79
2023-04-20T02:01:22.302Z,88.50
2023-04-20T02:06:23.908Z,88.55
2023-04-20T02:11:26.258Z,88.67
2023-04-20T02:16:29.416Z,88.29
2023-04-20T02:21:31.501Z,88.62
2023-04-20T02:26:33.024Z,88.80
2023-04-20T02:31:34.563Z,89.08
2023-04-20T02:36:36.234Z,89.04
2023-04-20T02:41:37.719Z,89.43
2023-04-20T02:46:39.237Z,89.35
2023-04-20T02:51:40.733Z,89.84
2023-04-20T02:56:42.190Z,89.97
2023-04-20T03:01:43.687Z,90.12
2023-04-20T03:06:45.248Z,90.36
2023-04-20T03:11:46.842Z,90.83
2023-04-20T03:16:48.539Z,91.20
2023-04-20T03:21:57.224Z,91.11
2023-04-20T03:26:58.760Z,91.44
2023-04-20T03:32:00.249Z,92.06
2023-04-20T03:37:01.913Z,92.78
2023-04-20T03:42:03.749Z,93.69
2023-04-20T03:47:05.574Z,94.59
2023-04-20T03:52:07.273Z,95.52
2023-04-20T03:57:08.920Z,96.64
2023-04-20T04:02:13.265Z,97.47
2023-04-20T04:07:14.896Z,98.14
2023-04-20T04:12:17.881Z,98.97
2023-04-20T04:17:19.433Z,99.63
2023-04-20T04:22:20.966Z,100.00
2023-04-20T04:27:23.127Z,100.00
2023-04-20T04:32:24.629Z,100.00
2023-04-20T04:37:27.152Z,100.00
2023-04-20T04:42:29.035Z,99.81
2023-04-20T04:47:41.204Z,100.00
2023-04-20T04:52:42.805Z,100.00
2023-04-20T04:57:44.411Z,99.81
2023-04-20T05:02:46.111Z,99.61
2023-04-20T05:07:47.952Z,97.81
2023-04-20T05:12:49.537Z,95.81
2023-04-20T05:17:51.222Z,94.25
2023-04-20T05:22:52.814Z,93.91
2023-04-20T05:27:54.350Z,93.41
2023-04-20T05:32:55.933Z,93.20
2023-04-20T05:38:00.359Z,92.66
2023-04-20T05:43:01.946Z,91.34
2023-04-20T05:48:04.026Z,91.44
2023-04-20T05:53:05.682Z,91.78
2023-04-20T05:58:07.225Z,90.95
2023-04-20T06:03:08.938Z,90.48
2023-04-20T06:08:10.637Z,89.36
2023-04-20T06:13:12.263Z,86.95
2023-04-20T06:18:13.908Z,85.13
2023-04-20T06:23:15.792Z,83.22
2023-04-20T06:28:17.312Z,83.79
2023-04-20T06:33:18.983Z,84.27
2023-04-20T06:38:20.784Z,83.37
2023-04-20T06:43:22.317Z,84.40
2023-04-20T06:48:32.107Z,85.65
2023-04-20T06:53:34.766Z,85.79
2023-04-20T06:58:36.290Z,86.87
2023-04-20T07:03:38.358Z,87.32
2023-04-20T07:08:39.979Z,87.68
2023-04-20T07:13:41.504Z,86.47
2023-04-20T07:18:42.964Z,86.66
2023-04-20T07:23:45.097Z,86.20
2023-04-20T07:28:46.885Z,86.98
2023-04-20T07:33:48.397Z,85.05
2023-04-20T07:38:50.036Z,83.31
2023-04-20T07:43:51.571Z,83.61
2023-04-20T07:48:53.211Z,87.37
2023-04-20T07:53:54.693Z,93.79
2023-04-20T07:58:56.430Z,98.78
2023-04-20T08:03:58.075Z,100.00
2023-04-20T08:08:59.886Z,100.00
2023-04-20T08:14:01.624Z,100.00
2023-04-20T08:19:09.938Z,100.00
2023-04-20T08:24:12.186Z,100.00
2023-04-20T08:29:13.642Z,100.00
2023-04-20T08:34:15.304Z,100.00
2023-04-20T08:39:20.592Z,100.00
2023-04-20T08:44:22.686Z,100.00
2023-04-20T08:49:27.462Z,100.00
2023-04-20T08:54:29.042Z,100.00
2023-04-20T08:59:31.058Z,100.00
2023-04-20T09:04:32.619Z,100.00
2023-04-20T09:09:34.287Z,100.00
2023-04-20T09:14:46.740Z,100.00
2023-04-20T09:19:53.404Z,100.00
2023-04-20T09:24:55.156Z,100.00
2023-04-20T09:29:58.765Z,100.00
2023-04-20T09:35:00.248Z,100.00
2023-04-20T09:40:02.691Z,100.00
2023-04-20T09:45:04.736Z,100.00
2023-04-20T09:50:19.517Z,100.00
2023-04-20T09:55:26.642Z,100.00
2023-04-20T10:00:28.370Z,100.00
2023-04-20T10:05:39.388Z,100.00
2023-04-20T10:10:59.135Z,100.00
2023-04-20T10:16:00.735Z,100.00
2023-04-20T10:21:13.541Z,100.00
2023-04-20T10:26:15.080Z,100.00
2023-04-20T10:31:17.078Z,100.00
2023-04-20T10:36:34.297Z,100.00
2023-04-20T10:41:36.988Z,100.00
2023-04-20T10:46:38.518Z,100.00
2023-04-20T10:51:46.994Z,100.00
2023-04-20T10:56:52.417Z,100.00
2023-04-20T11:01:55.404Z,100.00
2023-04-20T11:07:05.501Z,100.00
2023-04-20T11:12:09.236Z,100.00
2023-04-20T11:17:11.073Z,100.00
2023-04-20T11:22:21.667Z,100.00
2023-04-20T11:27:23.871Z,100.00
2023-04-20T11:32:26.778Z,100.00
2023-04-20T11:37:29.163Z,100.00
2023-04-20T11:42:30.761Z,100.00
2023-04-20T11:47:32.321Z,100.00
2023-04-20T11:52:33.833Z,100.00
2023-04-20T11:57:35.421Z,100.00
2023-04-20T12:02:37.050Z,100.00
2023-04-20T12:07:38.636Z,100.00
2023-04-20T12:12:41.995Z,100.00
2023-04-20T12:17:43.491Z,100.00
2023-04-20T12:22:45.011Z,100.00
2023-04-20T12:27:48.137Z,100.00
2023-04-20T12:32:51.060Z,100.00
2023-04-20T12:37:52.789Z,100.00
2023-04-20T12:42:54.332Z,100.00
2023-04-20T12:47:57.247Z,100.00
2023-04-20T12:52:59.314Z,100.00
2023-04-20T12:58:00.789Z,100.00
2023-04-20T13:03:02.580Z,100.00
2023-04-20T13:08:04.299Z,100.00
2023-04-20T13:13:05.792Z,100.00
2023-04-20T13:18:07.653Z,100.00
2023-04-20T13:23:09.508Z,99.39
2023-04-20T13:28:14.027Z,100.00
2023-04-20T13:33:16.300Z,99.95
2023-04-20T13:38:17.900Z,100.00
2023-04-20T13:43:21.438Z,100.00
2023-04-20T13:48:23.544Z,99.07
2023-04-20T13:53:25.023Z,97.99
2023-04-20T13:58:28.642Z,97.74
2023-04-20T14:03:30.292Z,99.00
2023-04-20T14:08:32.012Z,95.92
2023-04-20T14:13:33.535Z,93.27
2023-04-20T14:18:35.198Z,94.99
2023-04-20T14:23:36.775Z,93.26
2023-04-20T14:28:38.308Z,94.87
2023-04-20T14:33:41.498Z,92.54
2023-04-20T14:38:43.041Z,93.05
2023-04-20T14:43:44.543Z,93.72
2023-04-20T14:48:46.483Z,94.00
2023-04-20T14:53:48.008Z,93.33
2023-04-20T14:58:49.525Z,93.69
2023-04-20T15:03:51.342Z,93.05
2023-04-20T15:08:55.152Z,90.55
2023-04-20T15:13:56.660Z,88.26
2023-04-20T15:18:58.191Z,88.22
2023-04-20T15:23:59.727Z,87.60
2023-04-20T15:29:01.222Z,88.27
2023-04-20T15:34:02.810Z,87.68
2023-04-20T15:39:04.378Z,87.54
2023-04-20T15:44:06.247Z,85.97
2023-04-20T15:49:07.763Z,83.63
2023-04-20T15:54:09.212Z,82.69
2023-04-20T15:59:10.736Z,83.90
2023-04-20T16:04:13.727Z,84.68
2023-04-20T16:09:15.527Z,82.85
2023-04-20T16:14:17.245Z,82.00
2023-04-20T16:19:19.168Z,82.01
2023-04-20T16:24:21.109Z,82.82
2023-04-20T16:29:22.626Z,81.55
2023-04-20T16:34:24.523Z,82.01
2023-04-20T16:39:26.054Z,81.97
2023-04-20T16:44:27.532Z,80.04
2023-04-20T16:49:29.161Z,80.99
2023-04-20T16:54:30.672Z,82.25
2023-04-20T16:59:32.185Z,83.74
2023-04-20T17:04:33.835Z,84.02
2023-04-20T17:09:35.493Z,84.11
2023-04-20T17:14:37.182Z,85.19
2023-04-20T17:19:40.818Z,86.98
2023-04-20T17:24:42.372Z,87.55
2023-04-20T17:29:44.939Z,86.30
2023-04-20T17:34:48.667Z,85.93
2023-04-20T17:39:50.434Z,85.92
2023-04-20T17:44:52.138Z,86.59
2023-04-20T17:49:59.658Z,86.88
2023-04-20T17:55:01.918Z,87.93
2023-04-20T18:00:05.147Z,87.97
2023-04-20T18:05:07.134Z,88.80
2023-04-20T18:10:09.249Z,87.72
2023-04-20T18:15:12.481Z,88.11
2023-04-20T18:20:14.088Z,89.73
2023-04-20T18:25:16.516Z,91.07
2023-04-20T18:30:18.344Z,92.22
2023-04-20T18:35:19.911Z,93.41
2023-04-20T18:40:21.473Z,93.77
2023-04-20T18:45:23.865Z,94.95
2023-04-20T18:50:25.359Z,96.26
2023-04-20T18:55:26.840Z,97.05
2023-04-20T19:00:28.343Z,97.71
2023-04-20T19:05:30.804Z,98.61
2023-04-20T19:10:32.329Z,98.87
2023-04-20T19:15:34.122Z,100.00
2023-04-20T19:20:36.089Z,100.00
2023-04-20T19:25:38.145Z,100.00
2023-04-20T19:30:39.693Z,100.00
2023-04-20T19:35:42.153Z,100.00
2023-04-20T19:40:43.795Z,100.00
2023-04-20T19:45:45.366Z,100.00
2023-04-20T19:50:47.065Z,100.00
2023-04-20T19:55:48.592Z,100.00
2023-04-20T20:00:51.040Z,100.00
2023-04-20T20:05:52.539Z,100.00
2023-04-20T20:10:54.003Z,100.00
2023-04-20T20:15:55.578Z,100.00
2023-04-20T20:20:57.084Z,100.00
2023-04-20T20:25:58.534Z,100.00
2023-04-20T20:31:00.493Z,100.00
2023-04-20T20:36:04.267Z,100.00
2023-04-20T20:41:06.633Z,100.00
2023-04-20T20:46:09.629Z,100.00
2023-04-20T20:51:11.755Z,100.00
2023-04-20T20:56:13.718Z,100.00
2023-04-20T21:01:16.422Z,100.00
2023-04-20T21:06:18.046Z,100.00
2023-04-20T21:11:19.553Z,100.00
2023-04-20T21:16:21.072Z,100.00
2023-04-20T21:21:22.755Z,100.00
2023-04-20T21:26:24.324Z,100.00
2023-04-20T21:31:25.842Z,100.00
2023-04-20T21:36:27.894Z,100.00
2023-04-20T21:41:29.829Z,100.00
2023-04-20T21:46:31.377Z,100.00
2023-04-20T21:51:32.996Z,100.00
2023-04-20T21:56:34.459Z,100.00
2023-04-20T22:01:36.041Z,100.00
2023-04-20T22:06:37.543Z,100.00
2023-04-20T22:11:40.275Z,100.00
2023-04-20T22:16:41.834Z,100.00
2023-04-20T22:21:43.633Z,100.00
2023-04-20T22:26:45.253Z,100.00
2023-04-20T22:31:46.823Z,100.00
2023-04-20T22:36:48.589Z,100.00
2023-04-20T22:41:50.073Z,100.00
2023-04-20T22:46:52.293Z,100.00
2023-04-20T22:51:56.990Z,100.00
2023-04-20T22:56:58.818Z,100.00
2023-04-20T23:02:00.471Z,100.00
2023-04-20T23:07:02.181Z,100.00
2023-04-20T23:12:04.400Z,100.00
2023-04-20T23:17:06.520Z,100.00
2023-04-20T23:22:09.098Z,100.00
2023-04-20T23:27:10.722Z,100.00
2023-04-20T23:32:12.238Z,100.00
2023-04-20T23:37:13.783Z,100.00
2023-04-20T23:42:15.479Z,100.00
2023-04-20T23:47:17.628Z,100.00
2023-04-20T23:52:19.149Z,100.00
2023-04-20T23:57:20.787Z,100.00
